Time;durP1;ratioP1;P1;durP2;ratioP2;P2;SDS_P1;SDS_P2;PMS_P1;PMS_P2;Temp;Humidity;BMP_temperature;BMP_pressure;BME280_temperature;BME280_humidity;BME280_pressure;Samples;Min_cycle;Max_cycle;Signal;HPM_P1;HPM_P2
2023/09/20 00:01:52;;;;;;;1.95;0.40;;;;;;;16.54;100.00;97784.38;5151293;27;20023;-71
2023/09/20 00:04:18;;;;;;;1.58;0.80;;;;;;;16.50;100.00;97785.56;5152077;27;20046;-71
2023/09/20 00:06:44;;;;;;;1.95;1.08;;;;;;;16.49;100.00;97788.41;5150778;27;20152;-71
2023/09/20 00:09:09;;;;;;;1.45;1.02;;;;;;;16.47;100.00;97784.97;5150985;27;20022;-71
2023/09/20 00:11:35;;;;;;;0.38;0.30;;;;;;;16.47;100.00;97782.25;5150827;27;20026;-71
2023/09/20 00:14:01;;;;;;;0.93;0.68;;;;;;;16.42;100.00;97777.25;5133657;27;20045;-71
2023/09/20 00:16:29;;;;;;;0.52;0.47;;;;;;;16.45;100.00;97770.72;5133337;27;20047;-70
2023/09/20 00:18:54;;;;;;;0.65;0.45;;;;;;;16.40;100.00;97775.63;5134025;27;20561;-71
2023/09/20 00:21:20;;;;;;;8.10;1.98;;;;;;;16.40;100.00;97772.94;5151884;27;20014;-71
2023/09/20 00:23:46;;;;;;;1.27;0.65;;;;;;;16.38;100.00;97764.09;5133545;27;20046;-70
2023/09/20 00:26:13;;;;;;;0.50;0.50;;;;;;;16.44;100.00;97771.72;5151785;27;20413;-71
2023/09/20 00:28:39;;;;;;;0.85;0.50;;;;;;;16.44;100.00;97764.47;5152359;27;20037;-71
2023/09/20 00:31:05;;;;;;;4.50;1.75;;;;;;;16.40;100.00;97762.13;5152102;27;20030;-71
2023/09/20 00:33:32;;;;;;;0.50;0.50;;;;;;;16.37;100.00;97749.75;5151984;27;20379;-71
2023/09/20 00:35:57;;;;;;;0.52;0.52;;;;;;;16.40;100.00;97760.28;5151921;27;20026;-71
2023/09/20 00:38:30;;;;;;;1.73;1.63;;;;;;;16.40;100.00;97752.19;5150495;27;20029;-71
2023/09/20 00:40:56;;;;;;;1.50;1.13;;;;;;;16.34;100.00;97752.69;5133438;27;20114;-71
2023/09/20 00:43:25;;;;;;;0.93;0.88;;;;;;;16.33;100.00;97750.13;5150469;27;20458;-71
2023/09/20 00:45:51;;;;;;;1.20;1.10;;;;;;;16.33;100.00;97748.31;5150767;27;20034;-71
2023/09/20 00:48:17;;;;;;;0.90;0.57;;;;;;;16.31;100.00;97752.94;5150319;27;20027;-71
2023/09/20 00:50:43;;;;;;;0.85;0.63;;;;;;;16.23;100.00;97744.63;5142062;27;20422;-71
2023/09/20 00:53:11;;;;;;;0.60;0.60;;;;;;;16.21;100.00;97746.59;5137277;27;20023;-71
2023/09/20 00:55:37;;;;;;;1.38;0.73;;;;;;;16.25;100.00;97748.91;5137355;27;20037;-71
2023/09/20 00:58:14;;;;;;;2.03;1.02;;;;;;;16.22;100.00;97753.69;5137382;27;20138;-71
2023/09/20 01:00:43;;;;;;;1.42;1.20;;;;;;;16.13;100.00;97747.22;5154732;27;20093;-70
2023/09/20 01:03:09;;;;;;;1.92;1.20;;;;;;;16.13;100.00;97749.06;5137303;27;20029;-70
2023/09/20 01:05:37;;;;;;;1.98;1.10;;;;;;;16.12;100.00;97741.94;5154311;27;20030;-70
2023/09/20 01:08:04;;;;;;;0.60;0.60;;;;;;;16.16;100.00;97743.41;5154464;27;20525;-71
2023/09/20 01:10:31;;;;;;;1.65;0.68;;;;;;;16.05;100.00;97752.38;5153872;27;20026;-71
2023/09/20 01:13:02;;;;;;;0.70;0.70;;;;;;;16.02;100.00;97743.69;5137153;27;20401;-71
2023/09/20 01:15:28;;;;;;;1.20;0.88;;;;;;;15.95;100.00;97746.00;5154407;27;20409;-71
2023/09/20 01:17:58;;;;;;;0.75;0.70;;;;;;;15.90;100.00;97752.75;5153761;27;20117;-72
2023/09/20 01:20:28;;;;;;;1.00;0.55;;;;;;;15.87;100.00;97753.00;5130737;27;20027;-71
2023/09/20 01:22:56;;;;;;;2.97;0.77;;;;;;;15.82;100.00;97760.59;5134644;27;20027;-71
2023/09/20 01:25:40;;;;;;;1.45;1.00;;;;;;;15.84;100.00;97754.13;5149493;27;20034;-71
2023/09/20 01:28:09;;;;;;;0.75;0.65;;;;;;;15.87;100.00;97753.00;5154627;27;20068;-71
2023/09/20 01:30:41;;;;;;;0.50;0.40;;;;;;;15.78;100.00;97759.13;5153859;27;20019;-71
2023/09/20 01:33:07;;;;;;;0.63;0.63;;;;;;;15.76;100.00;97763.78;5136614;27;20030;-71
2023/09/20 01:35:34;;;;;;;1.23;0.75;;;;;;;15.77;100.00;97768.19;5136204;27;20037;-71
2023/09/20 01:38:04;;;;;;;1.67;1.33;;;;;;;15.79;100.00;97768.91;5153823;27;20490;-70
2023/09/20 01:40:33;;;;;;;1.27;0.82;;;;;;;15.77;100.00;97769.06;5153583;27;20025;-71
2023/09/20 01:43:07;;;;;;;0.98;0.88;;;;;;;15.70;100.00;97762.41;5153707;27;20027;-70
2023/09/20 01:45:36;;;;;;;0.45;0.28;;;;;;;15.65;100.00;97753.84;5153433;27;20339;-70
2023/09/20 01:48:06;;;;;;;1.00;0.90;;;;;;;15.70;100.00;97752.50;5153465;27;20504;-70
2023/09/20 01:50:32;;;;;;;2.80;1.42;;;;;;;15.66;100.00;97753.72;5154667;27;20098;-71
2023/09/20 01:52:59;;;;;;;4.60;1.80;;;;;;;15.69;100.00;97752.59;5153330;27;20106;-72
2023/09/20 01:55:27;;;;;;;0.65;0.50;;;;;;;15.65;100.00;97754.72;5146216;27;20172;-71
2023/09/20 01:58:05;;;;;;;1.13;1.02;;;;;;;15.61;100.00;97757.75;5143701;27;20038;-72
2023/09/20 02:00:36;;;;;;;0.93;0.70;;;;;;;15.55;100.00;97748.31;5153265;27;20525;-71
2023/09/20 02:03:16;;;;;;;1.02;0.68;;;;;;;15.50;100.00;97753.22;5152998;27;20063;-70
2023/09/20 02:05:44;;;;;;;0.93;0.43;;;;;;;15.44;100.00;97753.63;5153127;27;20496;-72
2023/09/20 02:08:09;;;;;;;1.58;1.13;;;;;;;15.48;100.00;97760.56;5135921;27;20041;-70
2023/09/20 02:10:39;;;;;;;1.08;0.63;;;;;;;15.52;100.00;97764.72;5152998;27;20487;-70
2023/09/20 02:13:05;;;;;;;0.70;0.57;;;;;;;15.46;100.00;97764.31;5154277;27;20026;-70
2023/09/20 02:15:34;;;;;;;2.22;1.00;;;;;;;15.49;100.00;97754.19;5135457;27;20031;-71
2023/09/20 02:18:05;;;;;;;2.65;1.55;;;;;;;15.48;100.00;97748.91;5152771;27;20387;-70
2023/09/20 02:20:34;;;;;;;2.78;1.05;;;;;;;15.43;100.00;97751.94;5152771;27;20027;-71
2023/09/20 02:23:00;;;;;;;3.70;1.45;;;;;;;15.41;100.00;97751.19;5135908;27;20045;-71
2023/09/20 02:25:26;;;;;;;0.85;0.85;;;;;;;15.44;100.00;97750.13;5152762;27;20027;-71
2023/09/20 02:27:54;;;;;;;2.50;1.13;;;;;;;15.47;100.00;97750.75;5148778;27;20368;-70
2023/09/20 02:30:24;;;;;;;1.38;0.90;;;;;;;15.43;100.00;97753.78;5148743;27;20490;-71
2023/09/20 02:32:51;;;;;;;0.88;0.70;;;;;;;15.47;100.00;97760.66;5152604;27;20486;-71
2023/09/20 02:35:17;;;;;;;0.93;0.90;;;;;;;15.45;100.00;97757.19;5154106;27;20034;-71
2023/09/20 02:37:43;;;;;;;0.82;0.40;;;;;;;15.38;100.00;97761.38;5152544;27;20018;-70
2023/09/20 02:40:17;;;;;;;0.85;0.65;;;;;;;15.40;100.00;97768.34;5153760;27;20061;-70
2023/09/20 02:42:53;;;;;;;1.17;0.95;;;;;;;15.41;100.00;97771.91;5153580;27;20029;-71
2023/09/20 02:45:20;;;;;;;1.30;1.15;;;;;;;15.40;100.00;97773.75;5152394;27;20025;-71
2023/09/20 02:47:47;;;;;;;2.53;1.05;;;;;;;15.42;100.00;97773.63;5153412;27;20478;-71
2023/09/20 02:50:16;;;;;;;1.92;0.90;;;;;;;15.44;100.00;97782.47;5146783;27;20065;-71
2023/09/20 02:52:43;;;;;;;1.92;1.13;;;;;;;15.46;100.00;97780.50;5152232;27;20371;-70
2023/09/20 02:55:12;;;;;;;4.82;2.45;;;;;;;15.40;100.00;97772.88;5152166;27;20022;-71
2023/09/20 02:57:37;;;;;;;1.35;1.17;;;;;;;15.41;100.00;97782.69;5153169;27;20494;-71
2023/09/20 03:00:31;;;;;;;1.90;1.13;;;;;;;15.35;100.00;97783.19;5151363;27;20075;-71
2023/09/20 03:02:57;;;;;;;0.35;0.35;;;;;;;15.36;100.00;97774.09;5139202;27;20491;-71
2023/09/20 03:05:28;;;;;;;1.10;0.80;;;;;;;15.34;100.00;97774.22;5147453;27;20022;-70
2023/09/20 03:07:54;;;;;;;0.70;0.55;;;;;;;15.27;100.00;97774.81;5151685;27;20451;-70
2023/09/20 03:10:21;;;;;;;2.20;1.02;;;;;;;15.21;100.00;97776.13;5134849;27;20494;-70
2023/09/20 03:12:48;;;;;;;1.00;0.60;;;;;;;15.23;100.00;97784.97;5153005;27;20087;-71
2023/09/20 03:15:17;;;;;;;10.38;1.77;;;;;;;15.23;100.00;97776.88;5151045;27;20464;-71
2023/09/20 03:17:44;;;;;;;0.52;0.52;;;;;;;15.26;100.00;97767.72;5151496;27;20039;-71
2023/09/20 03:20:10;;;;;;;1.33;0.55;;;;;;;15.19;100.00;97767.31;5151764;27;20050;-71
2023/09/20 03:22:46;;;;;;;1.92;1.23;;;;;;;15.09;100.00;97767.16;5145558;27;20023;-72
2023/09/20 03:25:14;;;;;;;2.17;1.17;;;;;;;15.05;100.00;97767.50;5136626;27;20118;-71
2023/09/20 03:27:40;;;;;;;5.25;2.72;;;;;;;15.09;100.00;97761.78;5131835;27;20019;-71
2023/09/20 03:30:14;;;;;;;6.32;1.90;;;;;;;15.03;100.00;97762.25;5132079;27;20436;-70
2023/09/20 03:32:42;;;;;;;2.30;1.52;;;;;;;15.07;100.00;97781.75;5152770;27;20078;-71
2023/09/20 03:35:10;;;;;;;2.03;0.90;;;;;;;15.05;100.00;97770.19;5139249;27;20470;-70
2023/09/20 03:37:39;;;;;;;3.33;1.85;;;;;;;15.07;100.00;97779.88;5130368;27;20019;-71
2023/09/20 03:40:15;;;;;;;6.93;2.58;;;;;;;15.15;100.00;97776.63;5130671;27;20034;-70
2023/09/20 03:42:41;;;;;;;2.95;2.17;;;;;;;15.08;100.00;97769.97;5131722;27;20478;-73
2023/09/20 03:45:11;;;;;;;2.85;1.30;;;;;;;15.03;100.00;97780.25;5113108;27;20031;-71
2023/09/20 03:47:37;;;;;;;1.20;1.02;;;;;;;15.12;100.00;97774.16;5147166;27;20019;-70
2023/09/20 03:50:04;;;;;;;7.13;1.05;;;;;;;15.24;100.00;97775.91;5150817;27;20030;-71
2023/09/20 03:52:29;;;;;;;0.95;0.60;;;;;;;15.27;100.00;97774.81;5147980;27;20027;-71
2023/09/20 03:54:57;;;;;;;0.63;0.57;;;;;;;15.22;100.00;97767.09;5151492;27;20023;-71
2023/09/20 03:57:24;;;;;;;1.75;1.20;;;;;;;15.29;100.00;97773.69;5134025;27;20026;-71
2023/09/20 03:59:54;;;;;;;0.60;0.60;;;;;;;15.32;100.00;97772.63;5151062;27;20122;-71
2023/09/20 04:02:23;;;;;;;1.42;1.15;;;;;;;15.36;100.00;97774.09;5150818;27;20026;-71
2023/09/20 04:04:53;;;;;;;0.50;0.50;;;;;;;15.28;100.00;97776.53;5150705;27;20393;-72
2023/09/20 04:07:19;;;;;;;1.33;1.05;;;;;;;15.25;100.00;97766.84;5150785;27;20114;-71
2023/09/20 04:09:44;;;;;;;2.85;1.30;;;;;;;15.30;100.00;97772.75;5151042;27;20511;-71
2023/09/20 04:12:11;;;;;;;0.90;0.85;;;;;;;15.33;100.00;97767.09;5132584;27;20027;-71
2023/09/20 04:14:37;;;;;;;4.88;2.08;;;;;;;15.30;100.00;97761.94;5146226;27;20105;-72
2023/09/20 04:17:04;;;;;;;2.70;0.98;;;;;;;15.39;100.00;97769.31;5150425;27;20058;-72
2023/09/20 04:19:31;;;;;;;4.05;1.88;;;;;;;15.40;100.00;97773.75;5150593;27;20117;-71
2023/09/20 04:21:57;;;;;;;1.75;1.25;;;;;;;15.34;100.00;97766.16;5150433;27;20027;-71
2023/09/20 04:24:22;;;;;;;1.73;1.63;;;;;;;15.39;100.00;97773.84;5150605;27;20027;-71
2023/09/20 04:26:48;;;;;;;1.45;1.05;;;;;;;15.46;100.00;97775.97;5155532;27;20035;-72
2023/09/20 04:29:14;;;;;;;1.98;1.48;;;;;;;15.53;100.00;97771.00;5154980;27;20565;-72
2023/09/20 04:31:40;;;;;;;3.20;1.02;;;;;;;15.57;100.00;97784.09;5156118;27;20026;-72
2023/09/20 04:34:05;;;;;;;2.35;1.17;;;;;;;15.41;100.00;97780.84;5155833;27;20105;-71
2023/09/20 04:36:31;;;;;;;0.65;0.52;;;;;;;15.50;100.00;97790.97;5156159;27;20031;-69
2023/09/20 04:38:56;;;;;;;2.40;0.60;;;;;;;15.58;100.00;97791.22;5154622;27;20019;-71
2023/09/20 04:41:25;;;;;;;0.60;0.60;;;;;;;15.56;100.00;97790.50;5154670;27;20030;-72
2023/09/20 04:43:50;;;;;;;1.20;0.77;;;;;;;15.58;100.00;97790.34;5154762;27;20027;-70
2023/09/20 04:46:16;;;;;;;0.88;0.60;;;;;;;15.60;100.00;97791.94;5155553;27;20033;-70
2023/09/20 04:48:42;;;;;;;0.95;0.93;;;;;;;15.64;100.00;97801.53;5154587;27;20387;-70
2023/09/20 04:51:09;;;;;;;0.55;0.55;;;;;;;15.64;100.00;97796.13;5154383;27;20035;-71
2023/09/20 04:53:34;;;;;;;1.00;0.95;;;;;;;15.64;100.00;97796.13;5154340;27;20030;-70
2023/09/20 04:56:01;;;;;;;1.77;1.30;;;;;;;15.70;100.00;97805.56;5154047;27;20130;-71
2023/09/20 04:58:27;;;;;;;1.38;0.85;;;;;;;15.84;100.00;97810.75;5137152;27;20015;-72
2023/09/20 05:00:53;;;;;;;2.05;0.80;;;;;;;15.95;100.00;97807.19;5153988;27;20135;-71
2023/09/20 05:03:19;;;;;;;1.88;0.93;;;;;;;16.03;100.00;97815.53;5139499;27;20026;-72
2023/09/20 05:05:47;;;;;;;1.17;0.93;;;;;;;16.02;100.00;97811.13;5141869;27;20079;-71
2023/09/20 05:08:18;;;;;;;2.83;1.25;;;;;;;16.00;100.00;97811.25;5135766;27;20493;-70
2023/09/20 05:10:44;;;;;;;1.45;0.75;;;;;;;16.08;100.00;97816.03;5155305;27;20023;-72
2023/09/20 05:13:09;;;;;;;0.73;0.73;;;;;;;16.02;100.00;97812.00;5153937;27;20431;-72
2023/09/20 05:15:36;;;;;;;7.47;2.03;;;;;;;15.97;100.00;97819.59;5154081;27;20022;-72
2023/09/20 05:18:04;;;;;;;1.75;1.05;;;;;;;16.00;100.00;97829.28;5153435;27;20410;-72
2023/09/20 05:20:31;;;;;;;1.48;0.88;;;;;;;15.91;100.00;97822.75;5153965;27;20405;-72
2023/09/20 05:23:04;;;;;;;1.73;1.35;;;;;;;15.98;100.00;97825.84;5153994;27;20030;-72
2023/09/20 05:25:31;;;;;;;1.27;1.08;;;;;;;15.98;100.00;97828.53;5154167;27;20064;-72
2023/09/20 05:27:57;;;;;;;4.53;1.35;;;;;;;16.05;100.00;97841.44;5153785;27;20023;-72
2023/09/20 05:30:24;;;;;;;2.60;1.45;;;;;;;16.13;100.00;97838.97;5153353;27;20027;-72
2023/09/20 05:32:51;;;;;;;1.20;1.00;;;;;;;15.86;100.00;97835.78;5136676;27;20018;-72
2023/09/20 05:35:18;;;;;;;1.35;1.25;;;;;;;15.99;100.00;97839.22;5154839;27;20023;-71
2023/09/20 05:37:44;;;;;;;1.73;1.30;;;;;;;16.03;100.00;97850.63;5152872;27;20047;-71
2023/09/20 05:40:19;;;;;;;0.75;0.60;;;;;;;16.09;100.00;97852.81;5153495;27;20022;-72
2023/09/20 05:42:50;;;;;;;1.63;0.93;;;;;;;16.09;100.00;97860.91;5153393;27;20037;-71
2023/09/20 05:45:15;;;;;;;5.78;0.88;;;;;;;15.95;100.00;97862.03;5136077;27;20087;-71
2023/09/20 05:47:42;;;;;;;3.40;1.55;;;;;;;16.09;100.00;97860.91;5154840;27;20054;-71
2023/09/20 05:50:13;;;;;;;1.35;1.25;;;;;;;16.23;100.00;97855.31;5135706;27;20026;-71
2023/09/20 05:52:43;;;;;;;0.90;0.63;;;;;;;16.31;100.00;97865.47;5136691;27;20027;-71
2023/09/20 05:55:13;;;;;;;1.85;1.30;;;;;;;16.38;100.00;97866.72;5152964;27;20242;-72
2023/09/20 05:57:40;;;;;;;1.52;1.42;;;;;;;16.30;100.00;97863.78;5153490;27;20019;-72
2023/09/20 06:00:11;;;;;;;0.98;0.95;;;;;;;16.30;100.00;97874.56;5154426;27;20030;-72
2023/09/20 06:02:37;;;;;;;1.90;1.33;;;;;;;16.40;100.00;97865.59;5153373;27;20071;-72
2023/09/20 06:05:03;;;;;;;0.77;0.77;;;;;;;16.51;100.00;97862.91;5154136;27;20444;-72
2023/09/20 06:07:30;;;;;;;1.08;0.98;;;;;;;16.62;100.00;97871.03;5154197;27;20034;-72
2023/09/20 06:09:55;;;;;;;3.03;1.40;;;;;;;16.59;100.00;97852.38;5154325;27;20030;-71
2023/09/20 06:12:21;;;;;;;1.35;0.88;;;;;;;16.76;100.00;97862.66;5152837;27;20030;-72
2023/09/20 06:14:47;;;;;;;5.05;1.58;;;;;;;16.91;100.00;97862.38;5154398;27;20030;-71
2023/09/20 06:17:12;;;;;;;0.35;0.35;;;;;;;16.53;100.00;97860.06;5152435;27;20190;-71
2023/09/20 06:19:38;;;;;;;3.53;1.60;;;;;;;16.35;100.00;97859.72;5152913;27;20071;-71
2023/09/20 06:22:03;;;;;;;4.20;2.20;;;;;;;16.44;100.00;97860.81;5152748;27;20030;-70
2023/09/20 06:24:29;;;;;;;1.50;1.10;;;;;;;16.57;100.00;97867.84;5154128;27;20034;-71
2023/09/20 06:26:55;;;;;;;1.33;0.75;;;;;;;16.69;100.00;97871.41;5121153;27;20529;-71
2023/09/20 06:29:21;;;;;;;1.25;0.77;;;;;;;16.87;100.00;97869.03;5149764;27;20113;-72
2023/09/20 06:31:46;;;;;;;1.85;1.67;;;;;;;16.92;100.00;97872.22;5152936;27;20026;-72
2023/09/20 06:34:17;;;;;;;0.93;0.60;;;;;;;16.95;100.00;97877.38;5153669;27;20083;-71
2023/09/20 06:36:43;;;;;;;1.05;0.95;;;;;;;17.01;100.00;97875.00;5132727;27;20114;-71
2023/09/20 06:39:09;;;;;;;2.15;0.98;;;;;;;17.33;100.00;97889.41;5152412;27;20105;-71
2023/09/20 06:41:37;;;;;;;1.88;0.82;;;;;;;17.63;100.00;97883.28;5139622;27;20027;-71
2023/09/20 06:44:02;;;;;;;0.95;0.95;;;;;;;17.86;100.00;97890.31;5132970;27;20498;-71
2023/09/20 06:46:28;;;;;;;3.22;1.02;;;;;;;18.08;100.00;97874.94;5132654;27;20058;-72
2023/09/20 06:48:57;;;;;;;0.82;0.82;;;;;;;18.14;100.00;97864.41;5146776;27;20041;-71
2023/09/20 06:51:23;;;;;;;1.00;0.77;;;;;;;18.18;100.00;97865.03;5152038;27;20026;-72
2023/09/20 06:53:48;;;;;;;1.23;1.13;;;;;;;18.12;100.00;97865.56;5142401;27;20031;-71
2023/09/20 06:56:14;;;;;;;1.88;1.02;;;;;;;17.94;100.00;97867.13;5133410;27;20116;-72
2023/09/20 06:58:40;;;;;;;1.30;1.08;;;;;;;17.67;100.00;97871.22;5134843;27;20488;-72
2023/09/20 07:01:06;;;;;;;0.85;0.75;;;;;;;18.00;100.00;97872.88;5134718;27;20034;-72
2023/09/20 07:03:32;;;;;;;1.25;0.68;;;;;;;17.95;100.00;97875.13;5153285;27;20022;-72
2023/09/20 07:05:58;;;;;;;1.90;1.27;;;;;;;17.88;100.00;97869.38;5147020;27;20052;-72
2023/09/20 07:08:23;;;;;;;0.50;0.50;;;;;;;17.92;100.00;97877.22;5131324;27;20041;-72
2023/09/20 07:10:50;;;;;;;0.88;0.70;;;;;;;18.50;100.00;97870.31;5126930;27;20056;-70
2023/09/20 07:13:18;;;;;;;4.82;1.95;;;;;;;18.85;100.00;97859.91;5149986;27;20060;-71
2023/09/20 07:15:44;;;;;;;0.77;0.57;;;;;;;18.97;100.00;97847.06;5134626;27;20113;-71
2023/09/20 07:18:13;;;;;;;3.47;1.17;;;;;;;19.06;100.00;97851.66;5151596;27;20528;-72
2023/09/20 07:20:42;;;;;;;0.98;0.70;;;;;;;18.78;100.00;97854.16;5151567;27;20030;-71
2023/09/20 07:23:09;;;;;;;9.10;4.20;;;;;;;18.74;100.00;97854.56;5151785;27;20026;-71
2023/09/20 07:25:38;;;;;;;0.65;0.65;;;;;;;18.75;100.00;97853.59;5152475;27;20032;-72
2023/09/20 07:28:06;;;;;;;3.10;1.63;;;;;;;19.10;100.00;97848.53;5151752;27;20482;-71
2023/09/20 07:30:39;;;;;;;0.63;0.63;;;;;;;19.61;100.00;97842.88;5151585;27;20029;-72
2023/09/20 07:33:11;;;;;;;0.65;0.63;;;;;;;19.91;100.00;97828.25;5151609;27;20027;-72
2023/09/20 07:35:46;;;;;;;0.73;0.57;;;;;;;20.49;100.00;97828.94;5151375;27;20021;-72
2023/09/20 07:38:17;;;;;;;1.17;1.08;;;;;;;21.06;100.00;97809.63;5151631;27;20513;-72
2023/09/20 07:40:50;;;;;;;2.85;1.02;;;;;;;21.59;100.00;97815.06;5151398;27;20074;-71
2023/09/20 07:43:17;;;;;;;0.82;0.82;;;;;;;22.08;100.00;97810.06;5134782;27;20031;-71
2023/09/20 07:45:43;;;;;;;2.83;0.98;;;;;;;22.75;100.00;97798.34;5134042;27;20035;-71
2023/09/20 07:48:12;;;;;;;1.02;0.93;;;;;;;22.87;100.00;97788.84;5133905;27;20029;-72
2023/09/20 07:50:44;;;;;;;1.88;0.95;;;;;;;24.48;100.00;97788.03;5152518;27;20014;-71
2023/09/20 07:53:11;;;;;;;1.15;0.70;;;;;;;25.68;100.00;97782.13;5137630;27;20422;-71
2023/09/20 07:55:43;;;;;;;3.13;0.93;;;;;;;26.56;100.00;97774.03;5133314;27;20056;-72
2023/09/20 07:58:13;;;;;;;0.77;0.68;;;;;;;26.22;100.00;97789.16;5146941;27;20022;-71
2023/09/20 08:00:41;;;;;;;3.10;2.50;;;;;;;25.36;100.00;97785.91;5133309;27;20026;-72
2023/09/20 08:03:10;;;;;;;1.00;0.52;;;;;;;25.10;100.00;97788.16;5133908;27;20438;-72
2023/09/20 08:05:37;;;;;;;1.00;0.95;;;;;;;25.79;100.00;97784.41;5143830;27;20711;-72
2023/09/20 08:08:06;;;;;;;1.50;1.05;;;;;;;26.57;100.00;97778.50;5126078;27;20023;-72
2023/09/20 08:10:36;;;;;;;0.52;0.50;;;;;;;26.49;100.00;97784.94;5132173;27;20041;-72
2023/09/20 08:13:03;;;;;;;0.73;0.73;;;;;;;26.27;100.00;97792.19;5150977;27;20022;-72
2023/09/20 08:15:42;;;;;;;0.60;0.60;;;;;;;25.93;100.00;97783.63;5152123;27;20022;-73
2023/09/20 08:20:56;;;;;;;0.70;0.47;;;;;;;26.49;100.00;97784.09;5151283;27;20030;-72
2023/09/20 09:00:31;;;;;;;;;;;;;;;;;;;;;
2023/09/20 09:03:03;;;;;;;0.63;0.47;;;;;;;33.72;59.82;97729.63;5137918;27;20389;-74
2023/09/20 09:05:29;;;;;;;0.93;0.85;;;;;;;34.15;55.64;97725.75;5150948;27;20025;-73
2023/09/20 09:08:00;;;;;;;1.55;0.95;;;;;;;34.51;52.50;97714.41;5151765;27;20039;-74
2023/09/20 09:10:26;;;;;;;1.27;0.50;;;;;;;32.98;59.23;97723.59;5150448;27;20030;-74
2023/09/20 09:12:52;;;;;;;0.98;0.57;;;;;;;34.52;54.56;97721.66;5152103;27;20119;-74
2023/09/20 09:15:17;;;;;;;0.40;0.40;;;;;;;33.08;60.68;97726.69;5154325;27;20105;-74
2023/09/20 09:17:47;;;;;;;11.02;0.77;;;;;;;31.68;66.76;97724.63;5155299;27;20042;-74
2023/09/20 09:20:15;;;;;;;0.43;0.40;;;;;;;30.91;73.17;97724.78;5154475;27;20023;-73
2023/09/20 09:22:43;;;;;;;0.63;0.57;;;;;;;31.55;71.37;97722.78;5155522;27;20055;-74
2023/09/20 09:25:18;;;;;;;1.67;0.80;;;;;;;31.26;72.97;97726.13;5140644;27;20023;-74
2023/09/20 09:27:44;;;;;;;0.60;0.57;;;;;;;32.11;67.34;97722.81;5134757;27;20054;-74
2023/09/20 09:30:14;;;;;;;0.40;0.40;;;;;;;32.55;67.90;97718.94;5134611;27;20066;-74
2023/09/20 09:32:41;;;;;;;0.20;0.20;;;;;;;32.29;65.31;97713.69;5151552;27;20060;-74
2023/09/20 09:35:07;;;;;;;8.85;3.55;;;;;;;32.10;69.62;97712.78;5154249;27;20026;-74
2023/09/20 09:37:36;;;;;;;6.78;3.50;;;;;;;33.32;60.96;97700.75;5136424;27;20098;-74
2023/09/20 09:40:03;;;;;;;8.55;3.10;;;;;;;32.89;58.14;97686.16;5153935;27;20122;-74
2023/09/20 09:42:30;;;;;;;7.18;3.20;;;;;;;33.07;57.03;97689.75;5155075;27;20027;-75
2023/09/20 09:44:55;;;;;;;15.18;4.05;;;;;;;32.13;61.33;97689.34;5153765;27;20119;-74
2023/09/20 09:47:24;;;;;;;12.82;4.30;;;;;;;31.86;69.88;97696.16;5153624;27;20023;-74
2023/09/20 09:49:52;;;;;;;4.38;3.38;;;;;;;33.94;56.40;97681.84;5153594;27;20049;-74
2023/09/20 09:52:18;;;;;;;4.63;2.90;;;;;;;36.06;48.60;97669.69;5153686;27;20113;-74
2023/09/20 09:54:46;;;;;;;8.27;2.88;;;;;;;37.30;44.46;97668.13;5153393;27;20014;-74
2023/09/20 09:57:12;;;;;;;8.30;2.70;;;;;;;37.44;42.48;97655.41;5136326;27;20105;-74
2023/09/20 09:59:39;;;;;;;6.20;2.78;;;;;;;36.28;44.62;97646.38;5154713;27;20027;-74
2023/09/20 10:02:19;;;;;;;5.60;3.15;;;;;;;37.45;43.56;97659.94;5136138;27;20037;-74
2023/09/20 10:04:56;;;;;;;8.82;2.40;;;;;;;39.12;39.92;97641.59;5154708;27;20498;-74
2023/09/20 10:07:27;;;;;;;5.00;2.20;;;;;;;39.90;37.82;97638.41;5153301;27;20037;-74
2023/09/20 10:09:54;;;;;;;4.30;2.05;;;;;;;37.85;38.82;97629.59;5153402;27;20121;-74
2023/09/20 10:12:21;;;;;;;7.07;4.28;;;;;;;35.75;42.35;97635.75;5136213;27;20536;-74
2023/09/20 10:14:47;;;;;;;2.78;2.10;;;;;;;35.18;42.73;97632.19;5154252;27;20438;-74
2023/09/20 10:17:20;;;;;;;8.68;2.10;;;;;;;35.76;44.44;97645.81;5151065;27;20140;-74
2023/09/20 10:19:48;;;;;;;8.32;2.08;;;;;;;35.96;44.63;97644.44;5153185;27;20031;-74
2023/09/20 10:22:14;;;;;;;17.85;3.65;;;;;;;34.68;44.52;97631.13;5154525;27;20047;-74
2023/09/20 10:24:50;;;;;;;2.38;1.75;;;;;;;34.31;41.62;97619.47;5154169;27;20026;-74
2023/09/20 10:27:24;;;;;;;7.60;1.77;;;;;;;35.47;40.88;97621.84;5152930;27;20050;-74
2023/09/20 10:30:09;;;;;;;2.95;1.80;;;;;;;36.28;39.61;97614.88;5152742;27;20037;-74
2023/09/20 10:32:47;;;;;;;5.68;2.40;;;;;;;34.98;40.67;97619.81;5152966;27;20113;-74
2023/09/20 10:35:33;;;;;;;5.78;2.47;;;;;;;34.95;43.25;97623.09;5154177;27;20519;-73
2023/09/20 10:38:07;;;;;;;5.90;2.05;;;;;;;35.98;40.86;97614.38;5136016;27;20023;-74
2023/09/20 10:40:48;;;;;;;6.53;2.53;;;;;;;36.27;39.72;97610.41;5153997;27;20019;-74
2023/09/20 10:43:15;;;;;;;5.85;2.65;;;;;;;35.32;42.15;97616.00;5154017;27;20489;-73
2023/09/20 10:45:41;;;;;;;7.68;2.58;;;;;;;35.10;41.31;97615.06;5152928;27;20462;-74
2023/09/20 10:48:12;;;;;;;5.00;2.63;;;;;;;34.13;42.18;97609.34;5152402;27;20025;-75
2023/09/20 10:50:48;;;;;;;5.95;3.22;;;;;;;33.22;44.19;97614.50;5152584;27;20029;-75
2023/09/20 10:53:18;;;;;;;7.97;3.03;;;;;;;32.64;46.31;97606.72;5151716;27;20023;-74
2023/09/20 10:55:44;;;;;;;7.85;2.92;;;;;;;33.55;46.62;97613.97;5152337;27;20022;-74
2023/09/20 10:58:09;;;;;;;6.68;2.60;;;;;;;36.37;41.72;97597.44;5152233;27;20031;-74
2023/09/20 11:00:36;;;;;;;3.63;2.50;;;;;;;37.36;39.31;97589.75;5153443;27;20373;-75
2023/09/20 11:03:06;;;;;;;4.95;3.00;;;;;;;38.27;38.61;97589.69;5152236;27;20489;-74
2023/09/20 11:05:32;;;;;;;7.17;3.07;;;;;;;38.11;36.90;97565.53;5152046;27;20465;-75
2023/09/20 11:08:07;;;;;;;6.85;2.95;;;;;;;37.28;38.47;97573.50;5151896;27;20322;-74
2023/09/20 11:10:34;;;;;;;8.43;3.03;;;;;;;39.30;35.95;97566.38;5151980;27;20118;-74
2023/09/20 11:13:01;;;;;;;11.70;3.60;;;;;;;38.14;38.55;97578.97;5152046;27;20014;-75
2023/09/20 11:15:26;;;;;;;9.60;3.03;;;;;;;37.24;39.56;97579.84;5152152;27;20071;-74
2023/09/20 11:17:53;;;;;;;7.38;3.13;;;;;;;37.56;37.81;97566.81;5153231;27;20035;-74
2023/09/20 11:20:18;;;;;;;9.23;3.33;;;;;;;34.78;43.12;97570.19;5153024;27;20082;-73
2023/09/20 11:22:44;;;;;;;10.48;3.50;;;;;;;34.15;45.02;97568.25;5153436;27;20447;-74
2023/09/20 11:25:11;;;;;;;10.50;3.20;;;;;;;33.61;45.93;97569.47;5137355;27;20062;-75
2023/09/20 11:27:38;;;;;;;7.65;3.00;;;;;;;33.76;46.33;97567.06;5150857;27;20026;-74
2023/09/20 11:30:08;;;;;;;8.48;3.38;;;;;;;36.03;42.58;97554.00;5134429;27;20019;-74
2023/09/20 11:32:34;;;;;;;10.25;2.88;;;;;;;38.05;38.50;97549.84;5143191;27;20105;-74
2023/09/20 11:35:01;;;;;;;7.13;3.10;;;;;;;38.11;37.44;97545.97;5151071;27;20080;-75
2023/09/20 11:37:30;;;;;;;7.63;3.35;;;;;;;39.50;35.95;97543.97;5151648;27;20471;-75
2023/09/20 11:39:56;;;;;;;9.90;3.17;;;;;;;38.76;36.50;97535.13;5151989;27;20042;-75
2023/09/20 11:42:26;;;;;;;9.25;3.45;;;;;;;38.70;37.54;97540.97;5151526;27;20409;-74
2023/09/20 11:45:18;;;;;;;9.23;4.03;;;;;;;37.78;38.00;97535.94;5151869;27;20029;-74
2023/09/20 11:47:44;;;;;;;7.07;3.58;;;;;;;38.13;38.18;97538.16;5130248;27;20031;-73
2023/09/20 11:50:13;;;;;;;6.45;4.03;;;;;;;38.87;37.40;97542.44;5152630;27;20029;-82
2023/09/20 11:52:46;;;;;;;11.02;3.72;;;;;;;37.81;38.54;97536.25;5151588;27;20029;-74
2023/09/20 11:55:12;;;;;;;16.27;3.45;;;;;;;37.06;40.01;97532.78;5151764;27;20018;-74
2023/09/20 11:57:38;;;;;;;12.48;4.07;;;;;;;36.39;41.45;97522.75;5134002;27;20435;-75
2023/09/20 12:00:05;;;;;;;14.55;4.22;;;;;;;37.08;40.72;97525.84;5151387;27;20022;-75
2023/09/20 12:02:31;;;;;;;14.77;3.75;;;;;;;36.11;41.20;97519.34;5151022;27;20030;-75
2023/09/20 12:04:56;;;;;;;9.80;3.53;;;;;;;35.23;43.22;97528.47;5152783;27;20018;-75
2023/09/20 12:07:22;;;;;;;7.43;3.60;;;;;;;35.36;43.05;97514.25;5152445;27;20113;-74
2023/09/20 12:09:47;;;;;;;6.82;3.17;;;;;;;35.95;41.31;97509.03;5152535;27;20084;-75
2023/09/20 12:12:13;;;;;;;8.10;3.83;;;;;;;37.87;38.41;97503.63;5133859;27;20091;-75
2023/09/20 12:14:39;;;;;;;9.23;3.63;;;;;;;37.16;39.29;97500.25;5133738;27;20026;-75